sensor_id;sensor_type;location;lat;lon;timestamp;temperature;humidity
31661;DHT22;18267;52.234;7.444;2023-02-15T00:01:25;4.60;99.90
31661;DHT22;18267;52.234;7.444;2023-02-15T00:03:50;4.60;99.90
31661;DHT22;18267;52.234;7.444;2023-02-15T00:06:16;4.70;99.90
31661;DHT22;18267;52.234;7.444;2023-02-15T00:08:42;4.70;99.90
31661;DHT22;18267;52.234;7.444;2023-02-15T00:11:13;4.70;99.90
31661;DHT22;18267;52.234;7.444;2023-02-15T00:13:39;4.70;99.90
31661;DHT22;18267;52.234;7.444;2023-02-15T00:16:12;4.70;99.90
31661;DHT22;18267;52.234;7.444;2023-02-15T00:18:40;4.70;99.90
31661;DHT22;18267;52.234;7.444;2023-02-15T00:21:08;4.70;99.90
31661;DHT22;18267;52.234;7.444;2023-02-15T00:23:34;4.70;99.90
31661;DHT22;18267;52.234;7.444;2023-02-15T00:26:08;4.70;99.90
31661;DHT22;18267;52.234;7.444;2023-02-15T00:28:34;4.60;99.90
31661;DHT22;18267;52.234;7.444;2023-02-15T00:31:08;4.60;99.90
31661;DHT22;18267;52.234;7.444;2023-02-15T00:33:34;4.40;99.90
31661;DHT22;18267;52.234;7.444;2023-02-15T00:36:01;4.40;99.90
31661;DHT22;18267;52.234;7.444;2023-02-15T00:38:28;4.40;99.90
31661;DHT22;18267;52.234;7.444;2023-02-15T00:40:54;4.40;99.90
31661;DHT22;18267;52.234;7.444;2023-02-15T00:43:20;4.50;99.90
31661;DHT22;18267;52.234;7.444;2023-02-15T00:45:46;4.50;99.90
31661;DHT22;18267;52.234;7.444;2023-02-15T00:48:11;4.50;99.90
31661;DHT22;18267;52.234;7.444;2023-02-15T00:50:37;4.50;99.90
31661;DHT22;18267;52.234;7.444;2023-02-15T00:53:03;4.50;99.90
31661;DHT22;18267;52.234;7.444;2023-02-15T00:55:28;4.40;99.90
31661;DHT22;18267;52.234;7.444;2023-02-15T00:57:54;4.40;99.90
31661;DHT22;18267;52.234;7.444;2023-02-15T01:00:19;4.40;99.90
31661;DHT22;18267;52.234;7.444;2023-02-15T01:02:45;4.40;99.90
31661;DHT22;18267;52.234;7.444;2023-02-15T01:05:11;4.30;99.90
31661;DHT22;18267;52.234;7.444;2023-02-15T01:07:36;4.30;99.90
31661;DHT22;18267;52.234;7.444;2023-02-15T01:10:02;4.30;99.90
31661;DHT22;18267;52.234;7.444;2023-02-15T01:12:28;4.40;99.90
31661;DHT22;18267;52.234;7.444;2023-02-15T01:14:53;4.30;99.90
31661;DHT22;18267;52.234;7.444;2023-02-15T01:17:19;4.40;99.90
31661;DHT22;18267;52.234;7.444;2023-02-15T01:19:44;4.30;99.90
31661;DHT22;18267;52.234;7.444;2023-02-15T01:22:10;4.30;99.90
31661;DHT22;18267;52.234;7.444;2023-02-15T01:24:35;4.40;99.90
31661;DHT22;18267;52.234;7.444;2023-02-15T01:27:01;4.30;99.90
31661;DHT22;18267;52.234;7.444;2023-02-15T01:29:27;4.30;99.90
31661;DHT22;18267;52.234;7.444;2023-02-15T01:31:52;4.40;99.90
31661;DHT22;18267;52.234;7.444;2023-02-15T01:34:18;4.40;99.90
31661;DHT22;18267;52.234;7.444;2023-02-15T01:36:44;4.40;99.90
31661;DHT22;18267;52.234;7.444;2023-02-15T01:39:09;4.40;99.90
31661;DHT22;18267;52.234;7.444;2023-02-15T01:41:35;4.40;99.90
31661;DHT22;18267;52.234;7.444;2023-02-15T01:44:03;4.30;99.90
31661;DHT22;18267;52.234;7.444;2023-02-15T01:46:35;4.20;99.90
31661;DHT22;18267;52.234;7.444;2023-02-15T01:49:13;4.40;99.90
31661;DHT22;18267;52.234;7.444;2023-02-15T01:51:42;4.40;99.90
31661;DHT22;18267;52.234;7.444;2023-02-15T01:54:18;4.50;99.90
31661;DHT22;18267;52.234;7.444;2023-02-15T01:56:47;4.40;99.90
31661;DHT22;18267;52.234;7.444;2023-02-15T01:59:19;4.40;99.90
31661;DHT22;18267;52.234;7.444;2023-02-15T02:01:45;4.40;99.90
31661;DHT22;18267;52.234;7.444;2023-02-15T02:04:20;4.40;99.90
31661;DHT22;18267;52.234;7.444;2023-02-15T02:06:49;4.40;99.90
31661;DHT22;18267;52.234;7.444;2023-02-15T02:09:15;4.50;99.90
31661;DHT22;18267;52.234;7.444;2023-02-15T02:11:42;4.50;99.90
31661;DHT22;18267;52.234;7.444;2023-02-15T02:14:10;4.40;99.90
31661;DHT22;18267;52.234;7.444;2023-02-15T02:16:57;4.40;99.90
31661;DHT22;18267;52.234;7.444;2023-02-15T02:41:49;4.20;99.90
31661;DHT22;18267;52.234;7.444;2023-02-15T02:44:22;4.20;99.90
31661;DHT22;18267;52.234;7.444;2023-02-15T02:46:59;4.20;99.90
31661;DHT22;18267;52.234;7.444;2023-02-15T02:49:30;4.10;99.90
31661;DHT22;18267;52.234;7.444;2023-02-15T02:52:06;4.20;99.90
31661;DHT22;18267;52.234;7.444;2023-02-15T02:54:34;4.20;99.90
31661;DHT22;18267;52.234;7.444;2023-02-15T02:57:06;4.20;99.90
31661;DHT22;18267;52.234;7.444;2023-02-15T02:59:38;4.20;99.90
31661;DHT22;18267;52.234;7.444;2023-02-15T03:02:13;4.20;99.90
31661;DHT22;18267;52.234;7.444;2023-02-15T03:04:46;4.20;99.90
31661;DHT22;18267;52.234;7.444;2023-02-15T03:07:17;4.20;99.90
31661;DHT22;18267;52.234;7.444;2023-02-15T03:09:50;4.10;99.90
31661;DHT22;18267;52.234;7.444;2023-02-15T03:12:31;4.10;99.90
31661;DHT22;18267;52.234;7.444;2023-02-15T03:15:03;4.10;99.90
31661;DHT22;18267;52.234;7.444;2023-02-15T03:17:32;4.20;99.90
31661;DHT22;18267;52.234;7.444;2023-02-15T03:20:06;4.20;99.90
31661;DHT22;18267;52.234;7.444;2023-02-15T03:22:42;4.10;99.90
31661;DHT22;18267;52.234;7.444;2023-02-15T03:27:48;4.10;99.90
31661;DHT22;18267;52.234;7.444;2023-02-15T03:30:16;4.10;99.90
31661;DHT22;18267;52.234;7.444;2023-02-15T03:32:43;4.00;99.90
31661;DHT22;18267;52.234;7.444;2023-02-15T03:35:10;4.00;99.90
31661;DHT22;18267;52.234;7.444;2023-02-15T03:37:49;3.80;99.90
31661;DHT22;18267;52.234;7.444;2023-02-15T03:40:37;3.90;99.90
31661;DHT22;18267;52.234;7.444;2023-02-15T03:48:47;3.60;99.90
31661;DHT22;18267;52.234;7.444;2023-02-15T03:51:23;3.70;99.90
31661;DHT22;18267;52.234;7.444;2023-02-15T03:54:22;3.70;99.90
31661;DHT22;18267;52.234;7.444;2023-02-15T03:57:10;3.60;99.90
31661;DHT22;18267;52.234;7.444;2023-02-15T03:59:54;3.70;99.90
31661;DHT22;18267;52.234;7.444;2023-02-15T04:02:52;3.70;99.90
31661;DHT22;18267;52.234;7.444;2023-02-15T04:05:19;3.70;99.90
31661;DHT22;18267;52.234;7.444;2023-02-15T04:07:45;3.80;99.90
31661;DHT22;18267;52.234;7.444;2023-02-15T04:10:10;3.70;99.90
31661;DHT22;18267;52.234;7.444;2023-02-15T04:12:56;3.60;99.90
31661;DHT22;18267;52.234;7.444;2023-02-15T04:15:21;3.60;99.90
31661;DHT22;18267;52.234;7.444;2023-02-15T04:18:06;3.70;99.90
31661;DHT22;18267;52.234;7.444;2023-02-15T04:20:31;3.60;99.90
31661;DHT22;18267;52.234;7.444;2023-02-15T04:23:16;3.60;99.90
31661;DHT22;18267;52.234;7.444;2023-02-15T04:26:03;3.70;99.90
31661;DHT22;18267;52.234;7.444;2023-02-15T04:28:30;3.60;99.90
31661;DHT22;18267;52.234;7.444;2023-02-15T04:30:55;3.70;99.90
31661;DHT22;18267;52.234;7.444;2023-02-15T04:33:21;3.70;99.90
31661;DHT22;18267;52.234;7.444;2023-02-15T04:35:46;3.70;99.90
31661;DHT22;18267;52.234;7.444;2023-02-15T04:38:12;3.70;99.90
31661;DHT22;18267;52.234;7.444;2023-02-15T04:40:38;3.80;99.90
31661;DHT22;18267;52.234;7.444;2023-02-15T04:43:03;3.70;99.90
31661;DHT22;18267;52.234;7.444;2023-02-15T04:45:29;3.60;99.90
31661;DHT22;18267;52.234;7.444;2023-02-15T04:47:55;3.60;99.90
31661;DHT22;18267;52.234;7.444;2023-02-15T04:50:20;3.50;99.90
31661;DHT22;18267;52.234;7.444;2023-02-15T04:52:46;3.50;99.90
31661;DHT22;18267;52.234;7.444;2023-02-15T04:55:12;3.50;99.90
31661;DHT22;18267;52.234;7.444;2023-02-15T04:57:37;3.50;99.90
31661;DHT22;18267;52.234;7.444;2023-02-15T05:00:04;3.50;99.90
31661;DHT22;18267;52.234;7.444;2023-02-15T05:02:29;3.60;99.90
31661;DHT22;18267;52.234;7.444;2023-02-15T05:04:55;3.60;99.90
31661;DHT22;18267;52.234;7.444;2023-02-15T05:07:20;3.40;99.90
31661;DHT22;18267;52.234;7.444;2023-02-15T05:09:46;3.40;99.90
31661;DHT22;18267;52.234;7.444;2023-02-15T05:12:12;3.40;99.90
31661;DHT22;18267;52.234;7.444;2023-02-15T05:14:37;3.40;99.90
31661;DHT22;18267;52.234;7.444;2023-02-15T05:17:03;3.40;99.90
31661;DHT22;18267;52.234;7.444;2023-02-15T05:19:30;3.40;99.90
31661;DHT22;18267;52.234;7.444;2023-02-15T05:21:56;3.40;99.90
31661;DHT22;18267;52.234;7.444;2023-02-15T05:24:21;3.40;99.90
31661;DHT22;18267;52.234;7.444;2023-02-15T05:27:07;3.30;99.90
31661;DHT22;18267;52.234;7.444;2023-02-15T05:29:51;3.30;99.90
31661;DHT22;18267;52.234;7.444;2023-02-15T05:32:17;3.30;99.90
31661;DHT22;18267;52.234;7.444;2023-02-15T05:34:42;3.20;99.90
31661;DHT22;18267;52.234;7.444;2023-02-15T05:37:08;3.10;99.90
31661;DHT22;18267;52.234;7.444;2023-02-15T05:39:34;3.00;99.90
31661;DHT22;18267;52.234;7.444;2023-02-15T05:42:00;3.00;99.90
31661;DHT22;18267;52.234;7.444;2023-02-15T05:44:25;3.00;99.90
31661;DHT22;18267;52.234;7.444;2023-02-15T05:46:51;3.00;99.90
31661;DHT22;18267;52.234;7.444;2023-02-15T05:49:16;2.90;99.90
31661;DHT22;18267;52.234;7.444;2023-02-15T05:51:42;2.90;99.90
31661;DHT22;18267;52.234;7.444;2023-02-15T05:54:08;3.00;99.90
31661;DHT22;18267;52.234;7.444;2023-02-15T05:56:33;3.00;99.90
31661;DHT22;18267;52.234;7.444;2023-02-15T05:58:59;3.00;99.90
31661;DHT22;18267;52.234;7.444;2023-02-15T06:01:25;3.00;99.90
31661;DHT22;18267;52.234;7.444;2023-02-15T06:03:50;3.10;99.90
31661;DHT22;18267;52.234;7.444;2023-02-15T06:06:17;3.10;99.90
31661;DHT22;18267;52.234;7.444;2023-02-15T06:08:42;3.10;99.90
31661;DHT22;18267;52.234;7.444;2023-02-15T06:11:08;3.10;99.90
31661;DHT22;18267;52.234;7.444;2023-02-15T06:13:34;3.00;99.90
31661;DHT22;18267;52.234;7.444;2023-02-15T06:16:00;3.00;99.90
31661;DHT22;18267;52.234;7.444;2023-02-15T06:18:25;3.00;99.90
31661;DHT22;18267;52.234;7.444;2023-02-15T06:20:51;2.90;99.90
31661;DHT22;18267;52.234;7.444;2023-02-15T06:23:17;3.00;99.90
31661;DHT22;18267;52.234;7.444;2023-02-15T06:25:45;2.90;99.90
31661;DHT22;18267;52.234;7.444;2023-02-15T06:28:10;2.90;99.90
31661;DHT22;18267;52.234;7.444;2023-02-15T06:30:36;2.90;99.90
31661;DHT22;18267;52.234;7.444;2023-02-15T06:33:01;2.90;99.90
31661;DHT22;18267;52.234;7.444;2023-02-15T06:35:27;2.90;99.90
31661;DHT22;18267;52.234;7.444;2023-02-15T06:37:53;2.90;99.90
31661;DHT22;18267;52.234;7.444;2023-02-15T06:40:19;2.90;99.90
31661;DHT22;18267;52.234;7.444;2023-02-15T06:42:44;2.90;99.90
31661;DHT22;18267;52.234;7.444;2023-02-15T06:45:11;2.80;99.90
31661;DHT22;18267;52.234;7.444;2023-02-15T06:47:37;2.90;99.90
31661;DHT22;18267;52.234;7.444;2023-02-15T06:50:04;2.90;99.90
31661;DHT22;18267;52.234;7.444;2023-02-15T06:52:30;2.90;99.90
31661;DHT22;18267;52.234;7.444;2023-02-15T06:54:55;2.80;99.90
31661;DHT22;18267;52.234;7.444;2023-02-15T06:57:21;2.90;99.90
31661;DHT22;18267;52.234;7.444;2023-02-15T06:59:46;2.80;99.90
31661;DHT22;18267;52.234;7.444;2023-02-15T07:02:13;2.80;99.90
31661;DHT22;18267;52.234;7.444;2023-02-15T07:04:39;2.80;99.90
31661;DHT22;18267;52.234;7.444;2023-02-15T07:07:07;2.70;99.90
31661;DHT22;18267;52.234;7.444;2023-02-15T07:09:33;2.90;99.90
31661;DHT22;18267;52.234;7.444;2023-02-15T07:11:58;2.80;99.90
31661;DHT22;18267;52.234;7.444;2023-02-15T07:14:42;2.80;99.90
31661;DHT22;18267;52.234;7.444;2023-02-15T07:17:08;2.70;99.90
31661;DHT22;18267;52.234;7.444;2023-02-15T07:19:33;2.50;99.90
31661;DHT22;18267;52.234;7.444;2023-02-15T07:21:59;2.50;99.90
31661;DHT22;18267;52.234;7.444;2023-02-15T07:24:25;2.50;99.90
31661;DHT22;18267;52.234;7.444;2023-02-15T07:26:50;2.50;99.90
31661;DHT22;18267;52.234;7.444;2023-02-15T07:29:16;2.70;99.90
31661;DHT22;18267;52.234;7.444;2023-02-15T07:31:42;2.80;99.90
31661;DHT22;18267;52.234;7.444;2023-02-15T07:34:10;2.80;99.90
31661;DHT22;18267;52.234;7.444;2023-02-15T07:36:36;3.00;99.90
31661;DHT22;18267;52.234;7.444;2023-02-15T07:39:02;3.00;99.90
31661;DHT22;18267;52.234;7.444;2023-02-15T07:41:28;3.10;99.90
31661;DHT22;18267;52.234;7.444;2023-02-15T07:43:54;3.20;99.90
31661;DHT22;18267;52.234;7.444;2023-02-15T07:46:19;3.20;99.90
31661;DHT22;18267;52.234;7.444;2023-02-15T07:48:47;3.30;99.90
31661;DHT22;18267;52.234;7.444;2023-02-15T07:51:13;3.30;99.90
31661;DHT22;18267;52.234;7.444;2023-02-15T07:53:40;3.40;99.90
31661;DHT22;18267;52.234;7.444;2023-02-15T07:56:13;3.50;99.90
31661;DHT22;18267;52.234;7.444;2023-02-15T07:58:39;3.50;99.90
31661;DHT22;18267;52.234;7.444;2023-02-15T08:01:22;3.50;99.90
31661;DHT22;18267;52.234;7.444;2023-02-15T08:03:48;3.60;99.90
31661;DHT22;18267;52.234;7.444;2023-02-15T08:06:14;3.50;99.90
31661;DHT22;18267;52.234;7.444;2023-02-15T08:08:41;3.60;99.90
31661;DHT22;18267;52.234;7.444;2023-02-15T08:11:21;3.60;99.90
31661;DHT22;18267;52.234;7.444;2023-02-15T08:14:17;3.60;99.90
31661;DHT22;18267;52.234;7.444;2023-02-15T08:16:48;3.60;99.90
31661;DHT22;18267;52.234;7.444;2023-02-15T08:19:22;3.80;99.90
31661;DHT22;18267;52.234;7.444;2023-02-15T08:21:50;3.70;99.90
31661;DHT22;18267;52.234;7.444;2023-02-15T08:24:21;3.80;99.90
31661;DHT22;18267;52.234;7.444;2023-02-15T08:26:47;3.80;99.90
31661;DHT22;18267;52.234;7.444;2023-02-15T08:29:14;3.90;99.90
31661;DHT22;18267;52.234;7.444;2023-02-15T08:31:41;3.90;99.90
31661;DHT22;18267;52.234;7.444;2023-02-15T08:34:09;4.00;99.90
31661;DHT22;18267;52.234;7.444;2023-02-15T08:36:35;4.10;99.90
31661;DHT22;18267;52.234;7.444;2023-02-15T08:39:03;4.10;99.90
31661;DHT22;18267;52.234;7.444;2023-02-15T08:41:34;4.10;99.90
31661;DHT22;18267;52.234;7.444;2023-02-15T08:44:03;4.10;99.90
31661;DHT22;18267;52.234;7.444;2023-02-15T08:46:32;4.10;99.90
31661;DHT22;18267;52.234;7.444;2023-02-15T08:48:58;4.10;99.90
31661;DHT22;18267;52.234;7.444;2023-02-15T08:51:27;4.20;99.90
31661;DHT22;18267;52.234;7.444;2023-02-15T08:53:55;4.20;99.90
31661;DHT22;18267;52.234;7.444;2023-02-15T08:56:23;4.30;99.90
31661;DHT22;18267;52.234;7.444;2023-02-15T08:58:50;4.30;99.90
31661;DHT22;18267;52.234;7.444;2023-02-15T09:01:19;4.30;99.90
31661;DHT22;18267;52.234;7.444;2023-02-15T09:03:50;4.40;99.90
31661;DHT22;18267;52.234;7.444;2023-02-15T09:06:18;4.50;99.90
31661;DHT22;18267;52.234;7.444;2023-02-15T09:08:44;4.50;99.90
31661;DHT22;18267;52.234;7.444;2023-02-15T09:11:12;4.60;99.90
31661;DHT22;18267;52.234;7.444;2023-02-15T09:13:38;4.60;99.90
31661;DHT22;18267;52.234;7.444;2023-02-15T09:16:06;4.60;99.90
31661;DHT22;18267;52.234;7.444;2023-02-15T09:18:35;4.60;99.90
31661;DHT22;18267;52.234;7.444;2023-02-15T09:21:10;4.60;99.90
31661;DHT22;18267;52.234;7.444;2023-02-15T09:23:39;4.70;99.90
31661;DHT22;18267;52.234;7.444;2023-02-15T09:26:12;4.80;99.90
31661;DHT22;18267;52.234;7.444;2023-02-15T09:28:39;4.90;99.90
31661;DHT22;18267;52.234;7.444;2023-02-15T09:31:13;4.90;99.90
31661;DHT22;18267;52.234;7.444;2023-02-15T09:33:41;4.90;99.90
31661;DHT22;18267;52.234;7.444;2023-02-15T09:36:25;5.00;99.90
31661;DHT22;18267;52.234;7.444;2023-02-15T09:38:59;5.10;99.90
31661;DHT22;18267;52.234;7.444;2023-02-15T09:47:36;5.30;99.90
31661;DHT22;18267;52.234;7.444;2023-02-15T09:50:31;5.40;99.90
31661;DHT22;18267;52.234;7.444;2023-02-15T09:53:36;5.40;99.90
31661;DHT22;18267;52.234;7.444;2023-02-15T09:59:03;5.50;99.90
31661;DHT22;18267;52.234;7.444;2023-02-15T10:07:29;5.70;99.90
31661;DHT22;18267;52.234;7.444;2023-02-15T10:13:07;5.70;99.90
31661;DHT22;18267;52.234;7.444;2023-02-15T10:15:50;5.80;99.90
31661;DHT22;18267;52.234;7.444;2023-02-15T10:26:56;6.10;99.90
31661;DHT22;18267;52.234;7.444;2023-02-15T10:29:38;6.20;99.90
31661;DHT22;18267;52.234;7.444;2023-02-15T10:32:26;6.20;99.90
31661;DHT22;18267;52.234;7.444;2023-02-15T10:38:13;6.40;99.90
31661;DHT22;18267;52.234;7.444;2023-02-15T10:43:39;6.50;99.90
31661;DHT22;18267;52.234;7.444;2023-02-15T10:51:27;6.70;99.90
31661;DHT22;18267;52.234;7.444;2023-02-15T10:56:52;6.90;99.90
31661;DHT22;18267;52.234;7.444;2023-02-15T10:59:50;7.00;99.90
31661;DHT22;18267;52.234;7.444;2023-02-15T11:07:46;7.30;99.90
31661;DHT22;18267;52.234;7.444;2023-02-15T11:12:51;7.50;99.90
31661;DHT22;18267;52.234;7.444;2023-02-15T11:18:48;7.50;99.90
31661;DHT22;18267;52.234;7.444;2023-02-15T11:21:29;7.60;99.90
31661;DHT22;18267;52.234;7.444;2023-02-15T11:23:59;7.60;99.90
31661;DHT22;18267;52.234;7.444;2023-02-15T11:26:39;7.70;99.90
31661;DHT22;18267;52.234;7.444;2023-02-15T11:29:26;7.80;99.90
31661;DHT22;18267;52.234;7.444;2023-02-15T11:31:56;7.90;99.90
31661;DHT22;18267;52.234;7.444;2023-02-15T11:34:33;7.90;99.90
31661;DHT22;18267;52.234;7.444;2023-02-15T11:37:05;8.00;99.90
31661;DHT22;18267;52.234;7.444;2023-02-15T11:39:31;8.00;99.90
31661;DHT22;18267;52.234;7.444;2023-02-15T11:42:03;8.10;99.90
31661;DHT22;18267;52.234;7.444;2023-02-15T11:44:37;8.10;99.90
31661;DHT22;18267;52.234;7.444;2023-02-15T11:47:11;8.20;99.90
31661;DHT22;18267;52.234;7.444;2023-02-15T11:49:38;8.20;99.90
31661;DHT22;18267;52.234;7.444;2023-02-15T11:52:10;8.20;99.90
31661;DHT22;18267;52.234;7.444;2023-02-15T11:54:41;8.20;99.90
31661;DHT22;18267;52.234;7.444;2023-02-15T11:57:23;8.20;99.90
31661;DHT22;18267;52.234;7.444;2023-02-15T12:00:02;8.30;99.90
31661;DHT22;18267;52.234;7.444;2023-02-15T12:02:31;8.30;99.90
31661;DHT22;18267;52.234;7.444;2023-02-15T12:05:03;8.30;99.90
31661;DHT22;18267;52.234;7.444;2023-02-15T12:07:31;8.30;99.90
31661;DHT22;18267;52.234;7.444;2023-02-15T12:10:13;8.40;99.90
31661;DHT22;18267;52.234;7.444;2023-02-15T12:12:43;8.40;99.90
31661;DHT22;18267;52.234;7.444;2023-02-15T12:15:10;8.50;99.90
31661;DHT22;18267;52.234;7.444;2023-02-15T12:17:53;8.50;99.90
31661;DHT22;18267;52.234;7.444;2023-02-15T12:20:30;8.50;99.90
31661;DHT22;18267;52.234;7.444;2023-02-15T12:23:08;8.60;99.90
31661;DHT22;18267;52.234;7.444;2023-02-15T12:25:42;8.60;99.90
31661;DHT22;18267;52.234;7.444;2023-02-15T12:30:56;8.70;99.90
31661;DHT22;18267;52.234;7.444;2023-02-15T12:33:36;8.80;99.90
31661;DHT22;18267;52.234;7.444;2023-02-15T12:36:15;8.80;99.90
31661;DHT22;18267;52.234;7.444;2023-02-15T12:38:42;8.80;99.90
31661;DHT22;18267;52.234;7.444;2023-02-15T12:41:25;8.80;99.90
31661;DHT22;18267;52.234;7.444;2023-02-15T12:44:24;8.80;99.90
31661;DHT22;18267;52.234;7.444;2023-02-15T12:47:06;8.90;99.90
31661;DHT22;18267;52.234;7.444;2023-02-15T12:49:43;8.90;99.90
31661;DHT22;18267;52.234;7.444;2023-02-15T12:54:44;9.00;99.90
31661;DHT22;18267;52.234;7.444;2023-02-15T12:57:23;9.00;99.90
31661;DHT22;18267;52.234;7.444;2023-02-15T12:59:56;9.10;99.90
31661;DHT22;18267;52.234;7.444;2023-02-15T13:02:41;9.20;99.90
31661;DHT22;18267;52.234;7.444;2023-02-15T13:05:13;9.20;99.90
31661;DHT22;18267;52.234;7.444;2023-02-15T13:07:50;9.30;99.90
31661;DHT22;18267;52.234;7.444;2023-02-15T13:12:50;9.30;99.90
31661;DHT22;18267;52.234;7.444;2023-02-15T13:15:28;9.30;99.90
31661;DHT22;18267;52.234;7.444;2023-02-15T13:17:56;9.40;99.90
31661;DHT22;18267;52.234;7.444;2023-02-15T13:20:23;9.40;99.90
31661;DHT22;18267;52.234;7.444;2023-02-15T13:22:51;9.40;99.90
31661;DHT22;18267;52.234;7.444;2023-02-15T13:25:26;9.40;99.90
31661;DHT22;18267;52.234;7.444;2023-02-15T13:27:56;9.50;99.90
31661;DHT22;18267;52.234;7.444;2023-02-15T13:30:29;9.40;99.90
31661;DHT22;18267;52.234;7.444;2023-02-15T13:33:06;9.50;99.90
31661;DHT22;18267;52.234;7.444;2023-02-15T13:36:08;9.50;99.90
31661;DHT22;18267;52.234;7.444;2023-02-15T13:41:04;9.50;99.90
31661;DHT22;18267;52.234;7.444;2023-02-15T13:43:56;9.50;99.90
31661;DHT22;18267;52.234;7.444;2023-02-15T13:47:01;9.60;99.90
31661;DHT22;18267;52.234;7.444;2023-02-15T13:52:34;9.70;99.90
31661;DHT22;18267;52.234;7.444;2023-02-15T13:55:17;9.70;99.90
31661;DHT22;18267;52.234;7.444;2023-02-15T14:12:01;10.10;99.90
31661;DHT22;18267;52.234;7.444;2023-02-15T14:14:49;10.20;99.90
31661;DHT22;18267;52.234;7.444;2023-02-15T14:20:47;10.30;99.90
31661;DHT22;18267;52.234;7.444;2023-02-15T14:23:27;10.40;99.90
31661;DHT22;18267;52.234;7.444;2023-02-15T14:29:23;10.30;99.90
31661;DHT22;18267;52.234;7.444;2023-02-15T14:31:56;10.30;99.90
31661;DHT22;18267;52.234;7.444;2023-02-15T14:34:31;10.20;99.90
31661;DHT22;18267;52.234;7.444;2023-02-15T14:37:01;10.20;99.90
31661;DHT22;18267;52.234;7.444;2023-02-15T14:39:47;10.20;99.90
31661;DHT22;18267;52.234;7.444;2023-02-15T14:43:07;10.20;99.90
31661;DHT22;18267;52.234;7.444;2023-02-15T14:45:55;10.20;99.90
31661;DHT22;18267;52.234;7.444;2023-02-15T14:48:30;10.20;99.90
31661;DHT22;18267;52.234;7.444;2023-02-15T14:50:56;10.20;99.90
31661;DHT22;18267;52.234;7.444;2023-02-15T15:01:25;10.10;99.90
31661;DHT22;18267;52.234;7.444;2023-02-15T15:03:54;10.10;99.90
31661;DHT22;18267;52.234;7.444;2023-02-15T15:06:27;10.10;99.90
31661;DHT22;18267;52.234;7.444;2023-02-15T15:09:27;10.10;99.90
31661;DHT22;18267;52.234;7.444;2023-02-15T15:11:54;10.10;99.90
31661;DHT22;18267;52.234;7.444;2023-02-15T15:17:02;10.10;99.90
31661;DHT22;18267;52.234;7.444;2023-02-15T15:22:24;10.10;99.90
31661;DHT22;18267;52.234;7.444;2023-02-15T15:25:00;10.10;99.90
31661;DHT22;18267;52.234;7.444;2023-02-15T15:28:05;10.00;99.90
31661;DHT22;18267;52.234;7.444;2023-02-15T15:43:24;9.80;99.90
31661;DHT22;18267;52.234;7.444;2023-02-15T15:48:32;9.70;99.90
31661;DHT22;18267;52.234;7.444;2023-02-15T15:51:29;9.70;99.90
31661;DHT22;18267;52.234;7.444;2023-02-15T15:53:56;9.70;99.90
31661;DHT22;18267;52.234;7.444;2023-02-15T15:56:27;9.70;99.90
31661;DHT22;18267;52.234;7.444;2023-02-15T15:58:59;9.60;99.90
31661;DHT22;18267;52.234;7.444;2023-02-15T16:01:37;9.60;99.90
31661;DHT22;18267;52.234;7.444;2023-02-15T16:04:04;9.70;99.90
31661;DHT22;18267;52.234;7.444;2023-02-15T16:06:36;9.60;99.90
31661;DHT22;18267;52.234;7.444;2023-02-15T16:09:25;9.50;99.90
31661;DHT22;18267;52.234;7.444;2023-02-15T16:11:58;9.50;99.90
31661;DHT22;18267;52.234;7.444;2023-02-15T16:14:34;9.50;99.90
31661;DHT22;18267;52.234;7.444;2023-02-15T16:17:03;9.40;99.90
31661;DHT22;18267;52.234;7.444;2023-02-15T16:19:41;9.40;99.90
31661;DHT22;18267;52.234;7.444;2023-02-15T16:22:18;9.30;99.90
31661;DHT22;18267;52.234;7.444;2023-02-15T16:27:48;9.20;99.90
31661;DHT22;18267;52.234;7.444;2023-02-15T16:32:53;9.10;99.90
31661;DHT22;18267;52.234;7.444;2023-02-15T16:35:20;9.00;99.90
31661;DHT22;18267;52.234;7.444;2023-02-15T16:37:46;9.00;99.90
31661;DHT22;18267;52.234;7.444;2023-02-15T16:40:48;8.90;99.90
31661;DHT22;18267;52.234;7.444;2023-02-15T16:43:20;8.90;99.90
31661;DHT22;18267;52.234;7.444;2023-02-15T16:45:47;8.80;99.90
31661;DHT22;18267;52.234;7.444;2023-02-15T16:48:18;8.80;99.90
31661;DHT22;18267;52.234;7.444;2023-02-15T16:50:51;8.80;99.90
31661;DHT22;18267;52.234;7.444;2023-02-15T16:53:24;8.70;99.90
31661;DHT22;18267;52.234;7.444;2023-02-15T16:55:56;8.70;99.90
31661;DHT22;18267;52.234;7.444;2023-02-15T16:58:49;8.60;99.90
31661;DHT22;18267;52.234;7.444;2023-02-15T17:01:14;8.60;99.90
31661;DHT22;18267;52.234;7.444;2023-02-15T17:03:41;8.60;99.90
31661;DHT22;18267;52.234;7.444;2023-02-15T17:06:26;8.50;99.90
31661;DHT22;18267;52.234;7.444;2023-02-15T17:08:52;8.50;99.90
31661;DHT22;18267;52.234;7.444;2023-02-15T17:11:22;8.40;99.90
31661;DHT22;18267;52.234;7.444;2023-02-15T17:16:53;8.30;99.90
31661;DHT22;18267;52.234;7.444;2023-02-15T17:19:23;8.30;99.90
31661;DHT22;18267;52.234;7.444;2023-02-15T17:22:23;8.30;99.90
31661;DHT22;18267;52.234;7.444;2023-02-15T17:24:50;8.30;99.90
31661;DHT22;18267;52.234;7.444;2023-02-15T17:27:25;8.30;99.90
31661;DHT22;18267;52.234;7.444;2023-02-15T17:29:55;8.20;99.90
31661;DHT22;18267;52.234;7.444;2023-02-15T17:32:27;8.20;99.90
31661;DHT22;18267;52.234;7.444;2023-02-15T17:37:41;8.20;99.90
31661;DHT22;18267;52.234;7.444;2023-02-15T17:40:25;8.20;99.90
31661;DHT22;18267;52.234;7.444;2023-02-15T17:42:51;8.20;99.90
31661;DHT22;18267;52.234;7.444;2023-02-15T17:45:18;8.20;99.90
31661;DHT22;18267;52.234;7.444;2023-02-15T17:47:46;8.10;99.90
31661;DHT22;18267;52.234;7.444;2023-02-15T17:50:24;8.10;99.90
31661;DHT22;18267;52.234;7.444;2023-02-15T17:52:51;8.10;99.90
31661;DHT22;18267;52.234;7.444;2023-02-15T17:55:20;8.00;99.90
31661;DHT22;18267;52.234;7.444;2023-02-15T17:58:07;8.00;99.90
31661;DHT22;18267;52.234;7.444;2023-02-15T18:00:43;8.00;99.90
31661;DHT22;18267;52.234;7.444;2023-02-15T18:03:53;8.00;99.90
31661;DHT22;18267;52.234;7.444;2023-02-15T18:06:40;8.00;99.90
31661;DHT22;18267;52.234;7.444;2023-02-15T18:09:25;8.00;99.90
31661;DHT22;18267;52.234;7.444;2023-02-15T18:12:22;7.90;99.90
31661;DHT22;18267;52.234;7.444;2023-02-15T18:14:49;7.80;99.90
31661;DHT22;18267;52.234;7.444;2023-02-15T18:17:15;7.80;99.90
31661;DHT22;18267;52.234;7.444;2023-02-15T18:19:42;7.80;99.90
31661;DHT22;18267;52.234;7.444;2023-02-15T18:22:11;7.80;99.90
31661;DHT22;18267;52.234;7.444;2023-02-15T18:24:37;7.70;99.90
31661;DHT22;18267;52.234;7.444;2023-02-15T18:27:04;7.70;99.90
31661;DHT22;18267;52.234;7.444;2023-02-15T18:29:30;7.60;99.90
31661;DHT22;18267;52.234;7.444;2023-02-15T18:31:58;7.70;99.90
31661;DHT22;18267;52.234;7.444;2023-02-15T18:34:29;7.70;99.90
31661;DHT22;18267;52.234;7.444;2023-02-15T18:36:57;7.70;99.90
31661;DHT22;18267;52.234;7.444;2023-02-15T18:41:59;7.70;99.90
31661;DHT22;18267;52.234;7.444;2023-02-15T18:44:25;7.60;99.90
31661;DHT22;18267;52.234;7.444;2023-02-15T18:46:51;7.70;99.90
31661;DHT22;18267;52.234;7.444;2023-02-15T18:49:16;7.60;99.90
31661;DHT22;18267;52.234;7.444;2023-02-15T18:51:43;7.60;99.90
31661;DHT22;18267;52.234;7.444;2023-02-15T18:54:26;7.60;99.90